createdAt,value
2023-03-02T00:00:51.581Z,33.45
2023-03-02T00:05:55.296Z,31.95
2023-03-02T00:10:58.901Z,35.40
2023-03-02T00:16:03.563Z,33.78
2023-03-02T00:21:11.143Z,36.08
2023-03-02T00:26:14.271Z,38.80
2023-03-02T00:31:19.424Z,41.55
2023-03-02T00:36:23.502Z,44.70
2023-03-02T00:41:26.750Z,45.28
2023-03-02T00:46:31.877Z,49.47
2023-03-02T00:51:35.628Z,48.67
2023-03-02T00:56:38.879Z,56.42
2023-03-02T01:01:44.928Z,55.85
2023-03-02T01:06:49.582Z,58.00
2023-03-02T01:11:53.565Z,57.70
2023-03-02T01:16:58.237Z,58.47
2023-03-02T01:22:01.373Z,61.55
2023-03-02T01:27:04.632Z,56.30
2023-03-02T01:32:09.695Z,54.75
2023-03-02T01:37:12.822Z,53.05
2023-03-02T01:42:16.103Z,54.58
2023-03-02T01:47:21.786Z,53.47
2023-03-02T01:59:29.844Z,52.65
2023-03-02T02:04:37.459Z,54.53
2023-03-02T02:09:42.496Z,56.45
2023-03-02T02:14:46.733Z,58.33
2023-03-02T02:20:00.491Z,57.95
2023-03-02T02:25:07.346Z,61.33
2023-03-02T02:30:14.564Z,52.28
2023-03-02T02:35:19.929Z,56.33
2023-03-02T02:40:39.595Z,54.15
2023-03-02T02:45:44.968Z,34.80
2023-03-02T02:50:48.596Z,48.40
2023-03-02T02:55:53.425Z,55.85
2023-03-02T03:00:59.109Z,51.05
2023-03-02T03:06:03.849Z,52.20
2023-03-02T03:11:07.107Z,50.10
2023-03-02T03:16:14.318Z,50.25
2023-03-02T03:21:18.391Z,49.60
2023-03-02T03:26:22.077Z,51.22
2023-03-02T03:31:28.089Z,59.60
2023-03-02T03:36:32.754Z,54.55
2023-03-02T03:41:36.859Z,52.05
2023-03-02T03:46:41.466Z,53.30
2023-03-02T03:51:44.810Z,51.40
2023-03-02T03:56:48.906Z,58.33
2023-03-02T04:01:55.034Z,52.00
2023-03-02T04:07:00.491Z,55.90
2023-03-02T04:12:03.734Z,50.63
2023-03-02T04:17:08.725Z,50.55
2023-03-02T04:22:16.940Z,48.15
2023-03-02T04:27:20.857Z,55.38
2023-03-02T04:32:25.746Z,49.33
2023-03-02T04:37:32.194Z,53.13
2023-03-02T04:42:35.809Z,60.50
2023-03-02T04:47:40.256Z,52.53
2023-03-02T04:52:43.419Z,60.38
2023-03-02T04:57:46.576Z,58.35
2023-03-02T05:02:51.164Z,56.65
2023-03-02T05:07:54.506Z,49.13
2023-03-02T05:13:02.400Z,58.75
2023-03-02T05:18:08.829Z,55.97
2023-03-02T05:23:12.671Z,54.50
2023-03-02T05:28:15.786Z,59.55
2023-03-02T05:33:20.618Z,56.88
2023-03-02T05:38:24.152Z,53.22
2023-03-02T05:43:27.500Z,55.33
2023-03-02T05:48:32.175Z,46.40
2023-03-02T05:53:35.308Z,51.78
2023-03-02T05:58:38.579Z,55.78
2023-03-02T06:03:43.227Z,55.13
2023-03-02T06:08:46.488Z,55.83
2023-03-02T06:13:49.672Z,56.15
2023-03-02T06:18:54.205Z,50.28
2023-03-02T06:23:57.346Z,63.65
2023-03-02T06:29:00.650Z,59.53
2023-03-02T06:34:05.218Z,56.55
2023-03-02T06:39:15.673Z,52.75
2023-03-02T06:44:19.065Z,51.08
2023-03-02T06:49:24.858Z,54.53
2023-03-02T06:54:28.068Z,52.92
2023-03-02T06:59:31.215Z,44.17
2023-03-02T07:04:35.705Z,49.65
2023-03-02T07:09:38.857Z,44.97
2023-03-02T07:14:42.030Z,45.72
2023-03-02T07:19:46.559Z,47.90
2023-03-02T07:24:49.694Z,47.03
2023-03-02T07:29:52.821Z,49.08
2023-03-02T07:34:57.406Z,47.88
2023-03-02T07:40:01.032Z,47.47
2023-03-02T07:45:05.169Z,45.90
2023-03-02T07:50:10.682Z,47.33
2023-03-02T07:55:13.889Z,51.80
2023-03-02T08:00:17.992Z,42.00
2023-03-02T08:05:22.474Z,50.53
2023-03-02T08:10:25.711Z,50.78
2023-03-02T08:15:28.948Z,50.55
2023-03-02T08:20:33.469Z,43.00
2023-03-02T08:25:38.602Z,41.65
2023-03-02T08:30:41.785Z,41.25
2023-03-02T08:35:46.319Z,48.00
2023-03-02T08:40:49.470Z,42.72
2023-03-02T08:45:53.520Z,46.33
2023-03-02T08:50:59.092Z,45.63
2023-03-02T08:56:02.315Z,41.33
2023-03-02T09:01:05.667Z,44.85
2023-03-02T09:06:10.577Z,40.67
2023-03-02T09:11:13.735Z,46.35
2023-03-02T09:16:16.989Z,44.47
2023-03-02T09:21:21.578Z,39.10
2023-03-02T09:26:25.188Z,45.10
2023-03-02T09:31:30.265Z,38.47
2023-03-02T09:36:35.158Z,36.35
2023-03-02T09:42:05.283Z,45.75
2023-03-02T09:47:15.376Z,42.47
2023-03-02T09:52:26.671Z,40.38
2023-03-02T09:57:32.472Z,39.93
2023-03-02T10:02:37.411Z,37.63
2023-03-02T10:07:42.083Z,39.67
2023-03-02T10:12:49.399Z,37.28
2023-03-02T10:17:57.695Z,40.45
2023-03-02T10:23:08.868Z,41.55
2023-03-02T10:33:17.132Z,31.55
2023-03-02T10:38:22.573Z,34.33
2023-03-02T10:43:31.600Z,30.08
2023-03-02T10:48:40.971Z,34.45
2023-03-02T10:53:45.798Z,25.80
2023-03-02T10:58:49.282Z,30.95
2023-03-02T11:03:56.453Z,28.85
2023-03-02T11:09:02.169Z,24.63
2023-03-02T11:14:09.589Z,24.95
2023-03-02T11:19:14.918Z,27.38
2023-03-02T11:24:22.002Z,25.88
2023-03-02T11:29:30.616Z,22.33
2023-03-02T11:34:36.526Z,23.17
2023-03-02T11:39:56.035Z,25.63
2023-03-02T11:45:01.882Z,22.27
2023-03-02T11:50:06.284Z,28.60
2023-03-02T11:55:18.450Z,23.70
2023-03-02T12:00:29.920Z,22.58
2023-03-02T12:05:35.691Z,19.58
2023-03-02T12:10:42.290Z,21.25
2023-03-02T12:15:46.789Z,18.15
2023-03-02T12:20:59.351Z,23.42
2023-03-02T12:26:05.654Z,22.67
2023-03-02T12:31:10.849Z,23.40
2023-03-02T12:36:15.504Z,19.33
2023-03-02T12:41:40.302Z,22.52
2023-03-02T12:46:45.769Z,23.70
2023-03-02T12:51:51.493Z,25.45
2023-03-02T12:57:14.287Z,28.45
2023-03-02T13:02:18.546Z,24.80
2023-03-02T13:07:24.059Z,21.02
2023-03-02T13:12:29.873Z,25.52
2023-03-02T13:17:34.110Z,21.95
2023-03-02T13:22:37.467Z,19.80
2023-03-02T13:27:52.581Z,22.15
2023-03-02T13:32:59.598Z,20.65
2023-03-02T13:38:04.577Z,22.33
2023-03-02T13:43:31.151Z,19.70
2023-03-02T13:48:35.017Z,18.98
2023-03-02T13:53:46.873Z,16.38
2023-03-02T13:58:51.400Z,20.52
2023-03-02T14:03:57.120Z,20.13
2023-03-02T14:09:00.507Z,19.60
2023-03-02T14:14:06.468Z,19.52
2023-03-02T14:19:11.759Z,19.70
2023-03-02T14:24:14.927Z,16.20
2023-03-02T14:29:22.737Z,16.92
2023-03-02T14:34:25.918Z,17.52
2023-03-02T14:39:31.600Z,20.50
2023-03-02T14:44:36.158Z,17.48
2023-03-02T14:49:39.618Z,21.35
2023-03-02T14:54:44.687Z,17.27
2023-03-02T14:59:49.699Z,19.13
2023-03-02T15:04:56.054Z,18.77
2023-03-02T15:09:59.588Z,16.67
2023-03-02T15:15:04.200Z,17.63
2023-03-02T15:20:07.986Z,15.32
2023-03-02T15:25:11.664Z,19.15
2023-03-02T15:30:16.413Z,17.38
2023-03-02T15:35:19.745Z,16.67
2023-03-02T15:40:22.948Z,19.33
2023-03-02T15:45:28.866Z,17.42
2023-03-02T15:50:32.014Z,18.27
2023-03-02T15:55:35.164Z,17.83
2023-03-02T16:00:39.988Z,16.98
2023-03-02T16:05:43.228Z,19.40
2023-03-02T16:10:56.092Z,18.52
2023-03-02T16:16:02.892Z,18.23
2023-03-02T16:21:09.106Z,19.48
2023-03-02T16:26:13.344Z,18.35
2023-03-02T16:31:19.447Z,18.58
2023-03-02T16:36:23.197Z,22.88
2023-03-02T16:41:26.936Z,17.83
2023-03-02T16:46:36.190Z,19.17
2023-03-02T16:51:39.997Z,21.35
2023-03-02T16:56:45.319Z,21.27
2023-03-02T17:01:50.050Z,23.92
2023-03-02T17:07:01.320Z,25.38
2023-03-02T17:12:04.887Z,22.42
2023-03-02T17:17:09.628Z,27.35
2023-03-02T17:22:12.789Z,26.80
2023-03-02T17:27:24.622Z,23.58
2023-03-02T17:32:30.093Z,26.85
2023-03-02T17:37:33.425Z,24.85
2023-03-02T17:42:39.056Z,25.65
2023-03-02T17:47:43.822Z,26.92
2023-03-02T17:52:47.200Z,26.52
2023-03-02T17:57:50.393Z,30.05
2023-03-02T18:02:54.929Z,31.10
2023-03-02T18:07:58.200Z,29.90
2023-03-02T18:13:01.315Z,31.75
2023-03-02T18:18:06.335Z,35.20
2023-03-02T18:23:09.722Z,32.10
2023-03-02T18:28:12.871Z,32.70
2023-03-02T18:33:17.381Z,34.03
2023-03-02T18:38:20.714Z,31.48
2023-03-02T18:43:23.895Z,30.25
2023-03-02T18:48:28.795Z,28.58
2023-03-02T18:53:32.954Z,28.25
2023-03-02T18:58:36.100Z,34.88
2023-03-02T19:03:41.890Z,30.98
2023-03-02T19:08:45.061Z,26.85
2023-03-02T19:13:48.208Z,26.92
2023-03-02T19:18:52.959Z,29.80
2023-03-02T19:23:56.316Z,28.88
2023-03-02T19:29:00.258Z,32.13
2023-03-02T19:34:05.447Z,26.38
2023-03-02T19:39:08.645Z,28.73
2023-03-02T19:44:12.663Z,30.17
2023-03-02T19:49:17.174Z,26.02
2023-03-02T19:54:20.596Z,27.73
2023-03-02T19:59:24.396Z,32.40
2023-03-02T20:04:29.011Z,32.33
2023-03-02T20:09:32.280Z,32.80
2023-03-02T20:14:36.124Z,33.47
2023-03-02T20:19:40.573Z,34.90
2023-03-02T20:24:44.398Z,30.88
2023-03-02T20:29:47.880Z,32.92
2023-03-02T20:34:52.562Z,33.70
2023-03-02T20:39:56.502Z,31.80
2023-03-02T20:45:00.442Z,40.15
2023-03-02T20:50:06.606Z,34.13
2023-03-02T20:55:10.212Z,36.92
2023-03-02T21:00:15.895Z,39.65
2023-03-02T21:05:21.912Z,37.10
2023-03-02T21:10:26.539Z,32.20
2023-03-02T21:15:29.806Z,35.67
2023-03-02T21:20:36.949Z,33.95
2023-03-02T21:25:42.300Z,31.45
2023-03-02T21:30:45.675Z,36.33
2023-03-02T21:35:50.197Z,36.78
2023-03-02T21:40:53.354Z,32.72
2023-03-02T21:45:56.518Z,35.00
2023-03-02T21:51:00.993Z,34.05
2023-03-02T21:56:04.130Z,34.35
2023-03-02T22:01:07.310Z,36.45
2023-03-02T22:06:15.918Z,41.67
2023-03-02T22:11:22.673Z,35.08
2023-03-02T22:16:26.973Z,32.35
2023-03-02T22:21:34.286Z,31.42
2023-03-02T22:26:38.815Z,34.72
2023-03-02T22:31:44.077Z,32.30
2023-03-02T22:36:48.869Z,35.90
2023-03-02T22:41:54.771Z,36.70
2023-03-02T22:46:58.463Z,33.42
2023-03-02T22:52:04.254Z,35.92
2023-03-02T22:57:17.654Z,33.45
2023-03-02T23:02:22.380Z,29.35
2023-03-02T23:07:26.992Z,34.80
2023-03-02T23:12:30.333Z,32.10
2023-03-02T23:17:35.765Z,32.50
2023-03-02T23:22:40.312Z,35.50
2023-03-02T23:27:43.466Z,33.72
2023-03-02T23:32:46.576Z,33.97
2023-03-02T23:37:51.125Z,37.53
2023-03-02T23:42:54.331Z,31.83
2023-03-02T23:47:57.848Z,36.60
2023-03-02T23:53:02.361Z,36.55
2023-03-02T23:58:05.419Z,38.17
